Time;durP1;ratioP1;P1;durP2;ratioP2;P2;SDS_P1;SDS_P2;PMS_P1;PMS_P2;Temp;Humidity;BMP_temperature;BMP_pressure;BME280_temperature;BME280_humidity;BME280_pressure;Samples;Min_cycle;Max_cycle;Signal;HPM_P1;HPM_P2
2021/11/08 00:02:07;;;;;;;30.55;9.95;;;;;;;;;;4878677;29;20538;-75
2021/11/08 00:05:11;;;;;;;23.77;9.38;;;;;;;;;;4878519;29;20049;-75
2021/11/08 00:08:17;;;;;;;26.55;11.30;;;;;;;;;;4878047;29;20037;-74
2021/11/08 00:11:21;;;;;;;24.98;10.77;;;;;;;;;;4878647;29;20044;-75
2021/11/08 00:14:26;;;;;;;29.38;11.18;;;;;;;;;;4879807;29;20044;-75
2021/11/08 00:17:40;;;;;;;26.60;10.82;;;;;;;;;;4882645;29;20052;-74
2021/11/08 00:20:47;;;;;;;32.85;10.50;;;;;;;;;;4878453;29;20048;-75
2021/11/08 00:23:51;;;;;;;28.85;10.98;;;;;;;;;;4878320;29;20048;-74
2021/11/08 00:26:55;;;;;;;19.35;11.27;;;;;;;;;;4877672;29;20052;-74
2021/11/08 00:29:59;;;;;;;24.73;9.68;;;;;;;;;;4878092;29;20056;-74
2021/11/08 00:33:04;;;;;;;26.17;9.80;;;;;;;;;;4878241;29;20045;-74
2021/11/08 00:36:08;;;;;;;24.92;9.60;;;;;;;;;;4878041;29;20045;-74
2021/11/08 00:39:13;;;;;;;25.92;9.70;;;;;;;;;;4878347;29;20197;-75
2021/11/08 00:42:17;;;;;;;20.33;9.23;;;;;;;;;;4878128;29;20123;-74
2021/11/08 00:45:23;;;;;;;23.27;10.13;;;;;;;;;;4877853;29;20049;-74
2021/11/08 00:48:32;;;;;;;22.08;10.27;;;;;;;;;;4878071;29;20043;-74
2021/11/08 00:51:39;;;;;;;22.30;9.40;;;;;;;;;;4877324;29;20122;-74
2021/11/08 00:54:43;;;;;;;23.05;9.25;;;;;;;;;;4878032;29;20069;-74
2021/11/08 00:57:49;;;;;;;25.42;9.25;;;;;;;;;;4877862;29;20545;-75
2021/11/08 01:00:53;;;;;;;21.52;8.63;;;;;;;;;;4878027;29;20040;-74
2021/11/08 01:03:58;;;;;;;20.95;9.07;;;;;;;;;;4877471;29;20053;-74
2021/11/08 01:07:03;;;;;;;21.95;9.32;;;;;;;;;;4877673;29;20056;-74
2021/11/08 01:10:08;;;;;;;22.50;9.40;;;;;;;;;;4877579;29;20067;-74
2021/11/08 01:13:13;;;;;;;20.48;8.10;;;;;;;;;;4877475;29;20057;-73
2021/11/08 01:16:17;;;;;;;19.73;8.52;;;;;;;;;;4877427;29;20049;-74
2021/11/08 01:19:22;;;;;;;25.02;9.35;;;;;;;;;;4877703;29;20049;-74
2021/11/08 01:22:27;;;;;;;23.90;9.50;;;;;;;;;;4877538;29;20234;-73
2021/11/08 01:25:33;;;;;;;24.35;9.77;;;;;;;;;;4877461;29;20053;-73
2021/11/08 01:28:41;;;;;;;19.63;9.50;;;;;;;;;;4877573;29;20510;-73
2021/11/08 01:31:45;;;;;;;27.00;10.30;;;;;;;;;;4877549;29;20049;-73
2021/11/08 01:34:50;;;;;;;22.65;9.85;;;;;;;;;;4877510;29;20123;-73
2021/11/08 01:38:03;;;;;;;24.48;9.82;;;;;;;;;;4877445;29;20049;-73
2021/11/08 01:41:08;;;;;;;17.52;9.40;;;;;;;;;;4877566;29;20043;-73
2021/11/08 01:44:14;;;;;;;23.45;9.75;;;;;;;;;;4877238;29;20037;-74
2021/11/08 01:47:18;;;;;;;27.05;9.63;;;;;;;;;;4877173;29;20385;-73
2021/11/08 01:50:24;;;;;;;21.23;9.20;;;;;;;;;;4877460;29;20037;-73
2021/11/08 01:53:29;;;;;;;21.52;8.60;;;;;;;;;;4877443;29;20044;-73
2021/11/08 01:56:33;;;;;;;25.50;8.43;;;;;;;;;;4877511;29;20029;-73
2021/11/08 01:59:37;;;;;;;22.00;9.10;;;;;;;;;;4877685;29;20060;-74
2021/11/08 02:02:42;;;;;;;22.15;8.32;;;;;;;;;;4877462;29;20048;-74
2021/11/08 02:05:47;;;;;;;22.70;8.07;;;;;;;;;;4881107;29;20406;-75
2021/11/08 02:08:51;;;;;;;17.75;7.88;;;;;;;;;;4881147;29;20037;-74
2021/11/08 02:11:56;;;;;;;19.25;7.07;;;;;;;;;;4880863;29;20386;-74
2021/11/08 02:15:01;;;;;;;16.58;7.10;;;;;;;;;;4880793;29;20060;-75
2021/11/08 02:18:10;;;;;;;15.63;6.47;;;;;;;;;;4880994;29;20037;-74
2021/11/08 02:21:14;;;;;;;11.25;5.65;;;;;;;;;;4880871;29;20470;-74
2021/11/08 02:24:21;;;;;;;12.65;6.32;;;;;;;;;;4880746;29;20060;-74
2021/11/08 02:27:25;;;;;;;13.32;6.00;;;;;;;;;;4880865;29;20049;-74
2021/11/08 02:30:30;;;;;;;11.63;5.63;;;;;;;;;;4880454;29;20552;-74
2021/11/08 02:33:35;;;;;;;12.40;5.90;;;;;;;;;;4881316;29;20041;-74
2021/11/08 02:36:42;;;;;;;10.38;5.78;;;;;;;;;;4880514;29;20044;-74
2021/11/08 02:39:49;;;;;;;9.82;5.90;;;;;;;;;;4880483;29;20037;-74
2021/11/08 02:42:57;;;;;;;11.77;5.95;;;;;;;;;;4880533;29;20041;-74
2021/11/08 02:49:09;;;;;;;12.35;5.65;;;;;;;;;;4880291;29;20041;-74
2021/11/08 02:52:17;;;;;;;13.35;5.93;;;;;;;;;;4879991;29;20048;-74
2021/11/08 02:55:23;;;;;;;12.98;6.15;;;;;;;;;;4880114;29;20378;-74
2021/11/08 02:58:29;;;;;;;16.25;6.68;;;;;;;;;;4880140;29;20403;-74
2021/11/08 03:01:33;;;;;;;12.40;5.95;;;;;;;;;;4880086;29;20048;-74
2021/11/08 03:04:41;;;;;;;14.27;6.38;;;;;;;;;;4880051;29;20057;-74
2021/11/08 03:07:45;;;;;;;10.90;6.15;;;;;;;;;;4879807;29;20048;-74
2021/11/08 03:10:56;;;;;;;17.70;6.97;;;;;;;;;;4879741;29;20045;-74
2021/11/08 03:14:08;;;;;;;11.73;6.70;;;;;;;;;;4879793;29;20389;-74
2021/11/08 03:17:16;;;;;;;13.27;6.25;;;;;;;;;;4879846;29;20423;-74
2021/11/08 03:20:21;;;;;;;12.80;6.10;;;;;;;;;;4879934;29;20475;-74
2021/11/08 03:23:26;;;;;;;14.10;6.32;;;;;;;;;;4879940;29;20053;-74
2021/11/08 03:29:34;;;;;;;16.13;6.07;;;;;;;;;;4879602;29;20053;-74
2021/11/08 03:32:39;;;;;;;11.70;5.93;;;;;;;;;;4879725;29;20383;-74
2021/11/08 03:35:44;;;;;;;13.75;6.53;;;;;;;;;;4879790;29;20064;-74
2021/11/08 03:38:48;;;;;;;14.25;6.95;;;;;;;;;;4879670;29;20378;-74
2021/11/08 03:41:52;;;;;;;13.23;6.30;;;;;;;;;;4889550;29;20053;-74
2021/11/08 03:44:58;;;;;;;18.92;7.10;;;;;;;;;;4879209;29;20053;-75
2021/11/08 03:48:03;;;;;;;20.90;7.10;;;;;;;;;;4879051;29;20045;-74
2021/11/08 03:51:08;;;;;;;14.48;6.68;;;;;;;;;;4878807;29;20049;-73
2021/11/08 03:54:12;;;;;;;12.65;6.93;;;;;;;;;;4878883;29;20052;-74
2021/11/08 03:57:16;;;;;;;20.58;8.65;;;;;;;;;;4878812;29;20040;-73
2021/11/08 04:00:22;;;;;;;16.55;8.18;;;;;;;;;;4878789;29;20045;-74
2021/11/08 04:03:26;;;;;;;16.75;8.95;;;;;;;;;;4878378;29;20040;-74
2021/11/08 04:06:31;;;;;;;14.77;7.60;;;;;;;;;;4878875;29;20057;-74
2021/11/08 04:09:36;;;;;;;15.73;7.57;;;;;;;;;;4878428;29;20044;-74
2021/11/08 04:12:42;;;;;;;15.77;7.22;;;;;;;;;;4878635;29;20067;-74
2021/11/08 04:15:47;;;;;;;17.23;7.22;;;;;;;;;;4878717;29;20044;-74
2021/11/08 04:18:56;;;;;;;12.10;7.22;;;;;;;;;;4878610;29;20063;-74
2021/11/08 04:22:01;;;;;;;16.88;7.45;;;;;;;;;;4878178;29;20044;-74
2021/11/08 04:25:06;;;;;;;12.35;7.55;;;;;;;;;;4878180;29;20054;-74
2021/11/08 04:28:10;;;;;;;18.38;8.50;;;;;;;;;;4877963;29;20045;-74
2021/11/08 04:31:15;;;;;;;13.02;7.15;;;;;;;;;;4877971;29;20053;-73
2021/11/08 04:34:23;;;;;;;17.17;7.25;;;;;;;;;;4878064;29;20041;-74
2021/11/08 04:40:42;;;;;;;18.38;8.60;;;;;;;;;;4878257;29;20048;-74
2021/11/08 04:50:33;;;;;;;19.75;8.65;;;;;;;;;;4877840;29;20044;-73
2021/11/08 05:30:44;;;;;;;19.33;8.32;;;;;;;;;;4877622;29;20398;-72
2021/11/08 05:33:48;;;;;;;16.45;7.90;;;;;;;;;;4877545;29;20044;-72
2021/11/08 05:36:52;;;;;;;20.23;9.98;;;;;;;;;;4876721;29;20406;-72
2021/11/08 05:40:06;;;;;;;16.02;9.05;;;;;;;;;;4880694;29;20041;-72
2021/11/08 05:43:10;;;;;;;18.67;8.73;;;;;;;;;;4881064;29;20037;-72
2021/11/08 05:46:15;;;;;;;16.85;8.48;;;;;;;;;;4881429;29;20052;-72
2021/11/08 05:49:19;;;;;;;15.90;8.40;;;;;;;;;;4880979;29;20056;-72
2021/11/08 05:52:23;;;;;;;13.63;8.48;;;;;;;;;;4881151;29;20051;-72
2021/11/08 05:55:54;;;;;;;14.48;8.43;;;;;;;;;;4881154;29;20433;-72
2021/11/08 05:59:13;;;;;;;14.55;7.47;;;;;;;;;;4881264;29;20041;-75
2021/11/08 06:50:04;;;;;;;20.17;9.35;;;;;;;;;;4879555;29;20040;-77
2021/11/08 06:53:16;;;;;;;24.35;11.35;;;;;;;;;;4880107;29;20045;-77
2021/11/08 06:56:26;;;;;;;18.20;10.35;;;;;;;;;;4880007;29;20048;-77
2021/11/08 06:59:30;;;;;;;20.05;11.07;;;;;;;;;;4879151;29;20678;-78
2021/11/08 07:02:34;;;;;;;17.20;10.40;;;;;;;;;;4879553;29;20048;-77
2021/11/08 07:05:42;;;;;;;20.25;10.75;;;;;;;;;;4879504;29;20055;-77
2021/11/08 07:08:46;;;;;;;20.48;10.90;;;;;;;;;;4879434;29;20136;-77
2021/11/08 07:11:51;;;;;;;19.77;10.07;;;;;;;;;;4879140;29;20052;-77
2021/11/08 07:14:55;;;;;;;15.80;10.63;;;;;;;;;;4879554;29;20504;-77
2021/11/08 07:17:59;;;;;;;23.45;9.77;;;;;;;;;;4879856;29;20052;-77
2021/11/08 07:21:04;;;;;;;17.98;9.55;;;;;;;;;;4879380;29;20037;-77
2021/11/08 07:24:09;;;;;;;16.77;9.70;;;;;;;;;;4879563;29;20048;-79
2021/11/08 07:27:13;;;;;;;17.70;9.15;;;;;;;;;;4879330;29;20065;-76
2021/11/08 07:30:21;;;;;;;15.90;9.70;;;;;;;;;;4879018;29;20052;-70
2021/11/08 07:33:27;;;;;;;14.20;9.35;;;;;;;;;;4878613;29;20052;-72
2021/11/08 07:36:31;;;;;;;16.67;10.25;;;;;;;;;;4879407;29;20048;-71
2021/11/08 07:39:35;;;;;;;18.60;9.57;;;;;;;;;;4879162;29;20052;-71
2021/11/08 07:42:42;;;;;;;15.35;8.75;;;;;;;;;;4879010;29;20133;-69
2021/11/08 07:45:47;;;;;;;17.40;9.95;;;;;;;;;;4878762;29;20056;-67
2021/11/08 07:48:52;;;;;;;18.25;10.00;;;;;;;;;;4878970;29;20052;-70
2021/11/08 07:51:56;;;;;;;19.83;10.65;;;;;;;;;;4878918;29;20052;-73
2021/11/08 07:55:00;;;;;;;15.10;9.13;;;;;;;;;;4878695;29;20052;-73
2021/11/08 07:58:05;;;;;;;14.48;8.55;;;;;;;;;;4878558;29;20041;-74
2021/11/08 08:01:10;;;;;;;17.25;8.75;;;;;;;;;;4877943;29;20049;-74
2021/11/08 08:04:14;;;;;;;17.45;9.30;;;;;;;;;;4878635;29;20041;-77
2021/11/08 08:07:18;;;;;;;22.70;10.65;;;;;;;;;;4878846;29;20064;-79
2021/11/08 08:10:23;;;;;;;24.02;13.82;;;;;;;;;;4888509;29;20048;-75
2021/11/08 08:13:29;;;;;;;23.65;13.85;;;;;;;;;;4877864;29;20055;-75
2021/11/08 08:16:33;;;;;;;18.10;10.52;;;;;;;;;;4877634;29;20064;-77
2021/11/08 08:19:37;;;;;;;20.55;9.85;;;;;;;;;;4878427;29;20430;-73
2021/11/08 08:22:42;;;;;;;18.00;9.75;;;;;;;;;;4878098;29;20052;-72
2021/11/08 08:25:47;;;;;;;16.08;10.05;;;;;;;;;;4877402;29;20068;-75
2021/11/08 08:28:51;;;;;;;17.35;9.13;;;;;;;;;;4878081;29;20056;-75
2021/11/08 08:31:56;;;;;;;21.45;9.05;;;;;;;;;;4878208;29;20402;-75
2021/11/08 08:35:00;;;;;;;22.30;9.90;;;;;;;;;;4878019;29;20063;-75
2021/11/08 08:38:05;;;;;;;19.38;8.43;;;;;;;;;;4878311;29;20052;-73
2021/11/08 08:41:09;;;;;;;18.95;7.85;;;;;;;;;;4878293;29;20401;-74
2021/11/08 08:44:14;;;;;;;21.00;9.52;;;;;;;;;;4878244;29;20049;-75
2021/11/08 08:47:18;;;;;;;21.20;7.78;;;;;;;;;;4877476;29;20123;-74
2021/11/08 08:50:23;;;;;;;15.50;7.93;;;;;;;;;;4877331;29;20395;-77
2021/11/08 08:53:27;;;;;;;14.45;8.10;;;;;;;;;;4877721;29;20057;-78
2021/11/08 08:56:32;;;;;;;13.40;8.02;;;;;;;;;;4877883;29;20053;-81
2021/11/08 08:59:37;;;;;;;14.13;7.60;;;;;;;;;;4878357;29;20056;-76
2021/11/08 09:02:41;;;;;;;16.13;8.95;;;;;;;;;;4877384;29;20041;-76
2021/11/08 09:05:46;;;;;;;20.05;8.68;;;;;;;;;;4877483;29;20425;-74
2021/11/08 09:08:51;;;;;;;18.15;9.05;;;;;;;;;;4876597;29;20041;-75
2021/11/08 09:11:59;;;;;;;16.95;8.10;;;;;;;;;;4877180;29;20060;-72
2021/11/08 09:15:05;;;;;;;23.33;9.05;;;;;;;;;;4876707;29;20538;-72
2021/11/08 09:18:10;;;;;;;20.73;8.77;;;;;;;;;;4877452;29;20107;-73
2021/11/08 09:21:15;;;;;;;14.88;7.93;;;;;;;;;;4876836;29;20049;-72
2021/11/08 09:24:22;;;;;;;17.05;7.95;;;;;;;;;;4877484;29;20390;-79
2021/11/08 09:27:26;;;;;;;15.25;8.25;;;;;;;;;;4877282;29;20061;-79
2021/11/08 09:30:32;;;;;;;16.52;8.57;;;;;;;;;;4877042;29;20045;-76
2021/11/08 09:33:37;;;;;;;18.70;9.02;;;;;;;;;;4877262;29;20055;-77
2021/11/08 09:36:41;;;;;;;14.75;8.10;;;;;;;;;;4877505;29;20045;-78
2021/11/08 09:39:47;;;;;;;15.80;8.57;;;;;;;;;;4877218;29;20409;-75
2021/11/08 09:42:52;;;;;;;14.57;9.25;;;;;;;;;;4877456;29;20052;-76
2021/11/08 09:45:56;;;;;;;23.60;10.40;;;;;;;;;;4877183;29;20045;-75
2021/11/08 09:49:02;;;;;;;17.77;9.63;;;;;;;;;;4877546;29;20382;-73
2021/11/08 09:52:06;;;;;;;18.27;9.48;;;;;;;;;;4877279;29;20044;-76
2021/11/08 09:55:12;;;;;;;19.50;9.70;;;;;;;;;;4877310;29;20037;-79
2021/11/08 09:58:17;;;;;;;16.98;9.90;;;;;;;;;;4876983;29;20375;-79
2021/11/08 10:01:21;;;;;;;17.10;9.77;;;;;;;;;;4877197;29;20059;-71
2021/11/08 10:04:26;;;;;;;19.17;9.90;;;;;;;;;;4877343;29;20048;-73
2021/11/08 10:07:31;;;;;;;20.02;9.93;;;;;;;;;;4877093;29;20058;-73
2021/11/08 10:10:35;;;;;;;20.65;9.32;;;;;;;;;;4877297;29;20041;-73
2021/11/08 10:13:40;;;;;;;12.40;8.82;;;;;;;;;;4876895;29;20037;-75
2021/11/08 10:16:47;;;;;;;16.05;9.05;;;;;;;;;;4877094;29;20041;-77
2021/11/08 10:19:52;;;;;;;23.35;9.32;;;;;;;;;;4876000;29;20056;-71
2021/11/08 10:22:57;;;;;;;21.98;10.98;;;;;;;;;;4876709;29;20044;-72
2021/11/08 10:26:05;;;;;;;18.60;10.43;;;;;;;;;;4879386;29;20080;-71
2021/11/08 10:29:11;;;;;;;24.45;9.80;;;;;;;;;;4880238;29;20060;-74
2021/11/08 10:32:16;;;;;;;16.63;8.75;;;;;;;;;;4880724;29;20041;-74
2021/11/08 10:35:20;;;;;;;18.63;8.40;;;;;;;;;;4880750;29;20037;-75
2021/11/08 10:38:27;;;;;;;21.10;10.10;;;;;;;;;;4880354;29;20033;-75
2021/11/08 10:41:32;;;;;;;20.35;10.60;;;;;;;;;;4880031;29;20040;-74
2021/11/08 10:44:37;;;;;;;20.05;10.60;;;;;;;;;;4879209;29;20051;-73
2021/11/08 10:47:41;;;;;;;19.92;10.43;;;;;;;;;;4880373;29;20060;-75
2021/11/08 10:50:45;;;;;;;16.25;9.57;;;;;;;;;;4880417;29;20043;-74
2021/11/08 10:53:52;;;;;;;20.75;9.63;;;;;;;;;;4880164;29;20041;-75
2021/11/08 10:56:59;;;;;;;19.33;8.82;;;;;;;;;;4880249;29;20037;-74
2021/11/08 11:00:12;;;;;;;20.95;10.38;;;;;;;;;;4890202;29;20040;-74
2021/11/08 11:03:17;;;;;;;20.63;10.65;;;;;;;;;;4880168;29;20123;-75
2021/11/08 11:06:22;;;;;;;19.02;9.45;;;;;;;;;;4879859;29;20072;-71
2021/11/08 11:09:31;;;;;;;22.02;10.65;;;;;;;;;;4880111;29;20505;-73
2021/11/08 11:12:36;;;;;;;20.85;10.70;;;;;;;;;;4879719;29;20051;-72
2021/11/08 11:15:43;;;;;;;23.40;12.75;;;;;;;;;;4879601;29;20378;-72
2021/11/08 11:18:57;;;;;;;20.40;12.75;;;;;;;;;;4879446;29;20060;-78
2021/11/08 11:22:05;;;;;;;22.13;13.55;;;;;;;;;;4879781;29;20052;-74
2021/11/08 11:25:11;;;;;;;24.55;14.50;;;;;;;;;;4878322;29;20048;-81
2021/11/08 11:28:15;;;;;;;25.05;14.48;;;;;;;;;;4879612;29;20044;-82
2021/11/08 11:31:20;;;;;;;21.20;12.98;;;;;;;;;;4879255;29;20044;-80
2021/11/08 11:34:25;;;;;;;20.90;13.27;;;;;;;;;;4879486;29;20075;-76
2021/11/08 11:37:30;;;;;;;25.00;14.10;;;;;;;;;;4879432;29;20056;-81
2021/11/08 11:40:39;;;;;;;23.08;12.27;;;;;;;;;;4879169;29;20143;-74
2021/11/08 11:43:45;;;;;;;19.90;11.27;;;;;;;;;;4878911;29;20072;-79
2021/11/08 11:46:51;;;;;;;17.45;10.18;;;;;;;;;;4879044;29;20047;-77
2021/11/08 11:49:55;;;;;;;19.92;10.90;;;;;;;;;;4879261;29;20056;-79
2021/11/08 11:53:00;;;;;;;19.92;10.32;;;;;;;;;;4879155;29;20059;-78
2021/11/08 11:56:04;;;;;;;20.35;9.95;;;;;;;;;;4878820;29;20056;-78
2021/11/08 11:59:11;;;;;;;25.55;10.77;;;;;;;;;;4879078;29;20037;-78
2021/11/08 12:02:17;;;;;;;23.27;10.95;;;;;;;;;;4877790;29;20052;-78
2021/11/08 12:05:22;;;;;;;26.52;12.27;;;;;;;;;;4878601;29;20079;-78
2021/11/08 12:08:37;;;;;;;23.55;12.93;;;;;;;;;;4878639;29;20039;-78
2021/11/08 12:11:43;;;;;;;23.75;12.82;;;;;;;;;;4878573;29;20048;-78
2021/11/08 12:14:55;;;;;;;23.52;12.13;;;;;;;;;;4878772;29;20048;-79
2021/11/08 12:18:12;;;;;;;23.08;13.30;;;;;;;;;;4877628;29;20044;-79
2021/11/08 12:21:22;;;;;;;23.63;13.02;;;;;;;;;;4878578;29;20060;-78
2021/11/08 12:24:29;;;;;;;26.10;13.32;;;;;;;;;;4878185;29;20042;-79
2021/11/08 12:27:34;;;;;;;22.23;13.02;;;;;;;;;;4878446;29;20052;-79
2021/11/08 12:30:44;;;;;;;24.38;13.82;;;;;;;;;;4877974;29;20520;-78
2021/11/08 12:34:02;;;;;;;21.98;13.05;;;;;;;;;;4888139;29;20048;-79
2021/11/08 12:37:08;;;;;;;22.20;13.50;;;;;;;;;;4878336;29;20514;-79
2021/11/08 12:40:13;;;;;;;23.13;13.32;;;;;;;;;;4878005;29;20508;-79
2021/11/08 12:43:28;;;;;;;33.42;14.45;;;;;;;;;;4888298;29;20068;-79
2021/11/08 12:46:55;;;;;;;26.30;13.90;;;;;;;;;;4876907;29;20055;-78
2021/11/08 12:49:59;;;;;;;25.75;13.25;;;;;;;;;;4878068;29;20044;-78
2021/11/08 12:53:04;;;;;;;23.45;13.65;;;;;;;;;;4877127;29;20071;-78
2021/11/08 12:56:23;;;;;;;23.90;12.45;;;;;;;;;;4877019;29;20052;-78
2021/11/08 12:59:30;;;;;;;24.10;12.10;;;;;;;;;;4876999;29;20052;-78
2021/11/08 13:02:39;;;;;;;23.70;14.07;;;;;;;;;;4877820;29;20048;-72
2021/11/08 13:05:45;;;;;;;29.73;15.20;;;;;;;;;;4877802;29;20509;-72
2021/11/08 13:08:49;;;;;;;27.75;14.80;;;;;;;;;;4877621;29;20044;-77
2021/11/08 13:11:56;;;;;;;32.40;14.10;;;;;;;;;;4877415;29;20048;-75
2021/11/08 13:15:06;;;;;;;24.85;12.82;;;;;;;;;;4877449;29;20060;-77
2021/11/08 13:18:10;;;;;;;19.10;10.30;;;;;;;;;;4877648;29;20518;-75
2021/11/08 13:21:22;;;;;;;23.20;11.32;;;;;;;;;;4877671;29;20060;-71
2021/11/08 13:24:30;;;;;;;24.33;12.25;;;;;;;;;;4877655;29;20047;-73
2021/11/08 13:27:34;;;;;;;21.05;10.85;;;;;;;;;;4876695;29;20060;-71
2021/11/08 13:30:40;;;;;;;25.15;12.05;;;;;;;;;;4876383;29;20056;-76
2021/11/08 13:33:46;;;;;;;28.08;11.27;;;;;;;;;;4877708;29;20059;-72
2021/11/08 13:36:51;;;;;;;21.85;10.10;;;;;;;;;;4877365;29;20048;-73
2021/11/08 13:39:55;;;;;;;23.13;10.55;;;;;;;;;;4877299;29;20413;-74
2021/11/08 13:43:08;;;;;;;15.77;9.00;;;;;;;;;;4876839;29;20378;-77
2021/11/08 13:46:14;;;;;;;18.13;9.48;;;;;;;;;;4876027;29;20049;-77
2021/11/08 13:49:20;;;;;;;14.38;8.48;;;;;;;;;;4876170;29;20048;-75
2021/11/08 13:52:26;;;;;;;16.48;9.20;;;;;;;;;;4876641;29;20037;-78
2021/11/08 13:55:30;;;;;;;22.58;9.73;;;;;;;;;;4875980;29;20044;-72
2021/11/08 13:58:34;;;;;;;17.00;9.63;;;;;;;;;;4876115;29;20056;-72
2021/11/08 14:01:42;;;;;;;19.45;10.27;;;;;;;;;;4880487;29;20401;-75
2021/11/08 14:04:51;;;;;;;16.73;8.80;;;;;;;;;;4880676;29;20044;-75
2021/11/08 14:08:01;;;;;;;16.83;10.90;;;;;;;;;;4880295;29;20056;-76
2021/11/08 14:11:05;;;;;;;26.38;11.30;;;;;;;;;;4880670;29;20047;-75
2021/11/08 14:14:11;;;;;;;21.75;10.68;;;;;;;;;;4890299;29;20048;-77
2021/11/08 14:17:26;;;;;;;21.55;12.23;;;;;;;;;;4880578;29;20048;-71
2021/11/08 14:20:30;;;;;;;19.50;11.00;;;;;;;;;;4890050;29;20504;-72
2021/11/08 14:23:35;;;;;;;20.17;10.65;;;;;;;;;;4879363;29;20119;-72
2021/11/08 14:27:00;;;;;;;25.17;11.60;;;;;;;;;;4880246;29;20064;-75
2021/11/08 14:30:19;;;;;;;23.65;11.75;;;;;;;;;;4880263;29;20061;-73
2021/11/08 14:33:23;;;;;;;21.92;12.07;;;;;;;;;;4880161;29;20052;-74
2021/11/08 14:36:29;;;;;;;19.67;12.75;;;;;;;;;;4880283;29;20405;-76
2021/11/08 14:39:39;;;;;;;22.50;13.30;;;;;;;;;;4880403;29;20401;-76
2021/11/08 14:42:43;;;;;;;22.65;12.18;;;;;;;;;;4880221;29;20055;-79
2021/11/08 14:45:55;;;;;;;27.88;13.98;;;;;;;;;;4879960;29;20532;-72
2021/11/08 14:49:07;;;;;;;23.20;13.68;;;;;;;;;;4880052;29;20056;-71
2021/11/08 14:52:12;;;;;;;25.17;14.43;;;;;;;;;;4879080;29;20052;-73
2021/11/08 14:55:17;;;;;;;27.08;14.10;;;;;;;;;;4879880;29;20052;-74
2021/11/08 14:58:22;;;;;;;20.48;13.35;;;;;;;;;;4880076;29;20068;-73
2021/11/08 15:01:28;;;;;;;24.50;14.18;;;;;;;;;;4880110;29;20056;-71
2021/11/08 15:04:32;;;;;;;22.35;12.93;;;;;;;;;;4878733;29;20048;-73
2021/11/08 15:07:38;;;;;;;23.38;12.38;;;;;;;;;;4878711;29;20418;-75
2021/11/08 15:10:47;;;;;;;20.52;11.18;;;;;;;;;;4879268;29;20406;-73
2021/11/08 15:13:52;;;;;;;21.48;11.15;;;;;;;;;;4879592;29;20048;-74
2021/11/08 15:16:57;;;;;;;19.55;10.80;;;;;;;;;;4879401;29;20052;-72
2021/11/08 15:20:03;;;;;;;18.20;11.05;;;;;;;;;;4879371;29;20056;-74
2021/11/08 15:23:10;;;;;;;23.98;11.40;;;;;;;;;;4878407;29;20064;-73
2021/11/08 15:26:17;;;;;;;21.80;10.60;;;;;;;;;;4879368;29;20063;-73
2021/11/08 15:29:22;;;;;;;23.35;12.32;;;;;;;;;;4889245;29;20064;-75
2021/11/08 15:32:29;;;;;;;19.23;12.00;;;;;;;;;;4879272;29;20422;-72
2021/11/08 15:35:44;;;;;;;23.17;12.52;;;;;;;;;;4879132;29;20072;-71
2021/11/08 15:38:49;;;;;;;22.75;13.35;;;;;;;;;;4888952;29;20052;-72
2021/11/08 15:41:53;;;;;;;23.92;12.07;;;;;;;;;;4878958;29;20514;-72
2021/11/08 15:44:58;;;;;;;26.65;13.75;;;;;;;;;;4878672;29;20063;-71
2021/11/08 15:48:02;;;;;;;21.65;12.15;;;;;;;;;;4878665;29;20055;-71
2021/11/08 15:51:08;;;;;;;21.70;12.77;;;;;;;;;;4878801;29;20048;-71
2021/11/08 15:54:17;;;;;;;23.00;10.90;;;;;;;;;;4877686;29;20048;-72
2021/11/08 15:57:22;;;;;;;28.85;11.75;;;;;;;;;;4877876;29;20057;-75
2021/11/08 16:00:27;;;;;;;17.92;10.07;;;;;;;;;;4877675;29;20504;-73
2021/11/08 16:03:32;;;;;;;24.67;10.52;;;;;;;;;;4875822;29;20056;-70
2021/11/08 16:06:36;;;;;;;21.77;10.90;;;;;;;;;;4876672;29;20063;-71
2021/11/08 16:09:41;;;;;;;23.98;10.98;;;;;;;;;;4876847;29;20074;-73
2021/11/08 16:12:46;;;;;;;23.40;12.07;;;;;;;;;;4875329;29;20056;-72
2021/11/08 16:15:52;;;;;;;19.40;12.55;;;;;;;;;;4876101;29;20393;-72
2021/11/08 16:18:58;;;;;;;31.60;16.73;;;;;;;;;;4876251;29;20077;-72
2021/11/08 16:22:03;;;;;;;32.40;18.17;;;;;;;;;;4876096;29;20389;-75
2021/11/08 16:25:07;;;;;;;26.98;16.08;;;;;;;;;;4877077;29;20056;-76
2021/11/08 16:28:12;;;;;;;28.88;16.92;;;;;;;;;;4876089;29;20606;-76
2021/11/08 16:31:18;;;;;;;30.13;17.35;;;;;;;;;;4875922;29;20052;-76
2021/11/08 16:34:23;;;;;;;32.90;17.05;;;;;;;;;;4876765;29;20044;-78
2021/11/08 16:37:27;;;;;;;31.50;18.83;;;;;;;;;;4866199;29;20055;-71
2021/11/08 16:40:33;;;;;;;32.83;20.33;;;;;;;;;;4877829;29;20052;-73
2021/11/08 16:43:37;;;;;;;37.33;22.77;;;;;;;;;;4877774;29;20052;-71
2021/11/08 16:46:41;;;;;;;35.63;22.02;;;;;;;;;;4877583;29;20064;-72
2021/11/08 16:49:46;;;;;;;33.17;20.55;;;;;;;;;;4877194;29;20057;-72
2021/11/08 16:52:50;;;;;;;29.95;19.60;;;;;;;;;;4877322;29;20067;-72
2021/11/08 16:55:55;;;;;;;35.25;19.10;;;;;;;;;;4877448;29;20106;-71
2021/11/08 16:59:00;;;;;;;34.97;19.75;;;;;;;;;;4877410;29;20056;-71
2021/11/08 17:02:04;;;;;;;28.65;18.27;;;;;;;;;;4877514;29;20052;-71
2021/11/08 17:05:09;;;;;;;35.92;18.95;;;;;;;;;;4877333;29;20060;-72
2021/11/08 17:08:22;;;;;;;30.23;17.20;;;;;;;;;;4877482;29;20378;-72
2021/11/08 17:14:32;;;;;;;28.48;17.50;;;;;;;;;;4877026;29;20065;-72
2021/11/08 17:17:37;;;;;;;33.50;18.60;;;;;;;;;;4877064;29;20390;-72
2021/11/08 17:20:43;;;;;;;33.15;16.80;;;;;;;;;;4877064;29;20057;-71
2021/11/08 17:23:47;;;;;;;32.45;17.02;;;;;;;;;;4877152;29;20410;-73
2021/11/08 17:26:52;;;;;;;31.08;18.40;;;;;;;;;;4877277;29;20068;-72
2021/11/08 17:29:58;;;;;;;25.23;16.98;;;;;;;;;;4876862;29;20071;-72
2021/11/08 17:33:03;;;;;;;29.20;15.73;;;;;;;;;;4877431;29;20374;-71
2021/11/08 17:36:08;;;;;;;19.98;9.88;;;;;;;;;;4883114;29;20445;-71
2021/11/08 17:39:13;;;;;;;19.52;8.15;;;;;;;;;;4883606;29;20394;-71
2021/11/08 17:42:17;;;;;;;21.02;7.65;;;;;;;;;;4883494;29;20045;-72
2021/11/08 17:45:22;;;;;;;18.95;7.00;;;;;;;;;;4883140;29;20484;-71
2021/11/08 17:48:26;;;;;;;25.60;6.85;;;;;;;;;;4883148;29;20045;-72
2021/11/08 17:51:31;;;;;;;17.23;6.72;;;;;;;;;;4882837;29;20041;-71
2021/11/08 17:54:35;;;;;;;22.25;7.03;;;;;;;;;;4883179;29;20405;-71
2021/11/08 17:57:40;;;;;;;22.77;6.72;;;;;;;;;;4882810;29;20040;-71
2021/11/08 18:00:46;;;;;;;19.40;6.03;;;;;;;;;;4882550;29;20047;-71
2021/11/08 18:03:52;;;;;;;23.45;8.02;;;;;;;;;;4882596;29;20044;-71
2021/11/08 18:06:57;;;;;;;25.73;9.18;;;;;;;;;;4882778;29;20056;-71
2021/11/08 18:10:01;;;;;;;23.38;9.85;;;;;;;;;;4882339;29;20041;-71
2021/11/08 18:13:06;;;;;;;20.42;10.32;;;;;;;;;;4882200;29;20462;-71
2021/11/08 18:16:11;;;;;;;24.38;11.20;;;;;;;;;;4882294;29;20056;-71
2021/11/08 18:19:17;;;;;;;21.73;10.43;;;;;;;;;;4882855;29;20048;-71
2021/11/08 18:28:55;;;;;;;22.13;8.47;;;;;;;;;;4879974;29;20048;-72
2021/11/08 18:32:00;;;;;;;16.25;7.53;;;;;;;;;;4880676;29;20278;-72
2021/11/08 18:35:04;;;;;;;18.88;6.97;;;;;;;;;;4882380;29;20040;-72
2021/11/08 18:38:09;;;;;;;18.00;7.85;;;;;;;;;;4892094;29;20545;-72
2021/11/08 18:41:15;;;;;;;20.63;8.15;;;;;;;;;;4881972;29;20037;-72
2021/11/08 18:44:22;;;;;;;17.02;7.95;;;;;;;;;;4882664;29;20049;-72
2021/11/08 18:47:26;;;;;;;17.33;8.20;;;;;;;;;;4879707;29;20053;-72
2021/11/08 18:50:31;;;;;;;16.48;7.05;;;;;;;;;;4879563;29;20048;-72
2021/11/08 18:53:35;;;;;;;18.63;6.55;;;;;;;;;;4879269;29;20088;-72
2021/11/08 18:56:40;;;;;;;19.50;6.63;;;;;;;;;;4878899;29;20477;-72
2021/11/08 18:59:45;;;;;;;15.38;5.68;;;;;;;;;;4879165;29;20053;-72
2021/11/08 19:02:54;;;;;;;16.92;5.60;;;;;;;;;;4878535;29;20037;-72
2021/11/08 19:06:10;;;;;;;18.13;7.28;;;;;;;;;;4878964;29;20045;-72
2021/11/08 19:09:15;;;;;;;19.58;7.93;;;;;;;;;;4878750;29;20053;-72
2021/11/08 19:12:24;;;;;;;11.80;5.93;;;;;;;;;;4879278;29;20045;-72
2021/11/08 19:15:29;;;;;;;14.93;6.28;;;;;;;;;;4889213;29;20053;-72
2021/11/08 19:18:34;;;;;;;17.73;6.45;;;;;;;;;;4879225;29;20382;-72
2021/11/08 19:21:39;;;;;;;15.57;6.68;;;;;;;;;;4879071;29;20052;-72
2021/11/08 19:24:43;;;;;;;15.60;6.43;;;;;;;;;;4879078;29;20056;-72
2021/11/08 19:27:48;;;;;;;16.50;6.60;;;;;;;;;;4878795;29;20057;-72
2021/11/08 19:30:57;;;;;;;15.65;7.20;;;;;;;;;;4878458;29;20083;-72
2021/11/08 19:40:36;;;;;;;21.45;7.28;;;;;;;;;;4878301;29;20045;-73
2021/11/08 19:43:40;;;;;;;14.77;6.78;;;;;;;;;;4878649;29;20049;-73
2021/11/08 19:46:46;;;;;;;15.82;5.70;;;;;;;;;;4878856;29;20057;-73
2021/11/08 19:49:50;;;;;;;12.38;5.30;;;;;;;;;;4878513;29;20044;-73
2021/11/08 19:52:54;;;;;;;12.02;5.78;;;;;;;;;;4878819;29;20661;-73
2021/11/08 19:56:03;;;;;;;13.23;6.18;;;;;;;;;;4878537;29;20067;-73
2021/11/08 19:59:11;;;;;;;11.85;5.80;;;;;;;;;;4878242;29;20050;-73
2021/11/08 20:02:15;;;;;;;17.08;6.30;;;;;;;;;;4878628;29;20634;-73
2021/11/08 20:05:20;;;;;;;17.52;6.93;;;;;;;;;;4878264;29;20045;-76
2021/11/08 20:08:25;;;;;;;16.00;7.28;;;;;;;;;;4876802;29;20064;-75